sensor_id;sensor_type;location;lat;lon;timestamp;temperature;humidity
53675;DHT22;39574;50.534;8.500;2022-08-19T00:08:22;22.2;99.9
53675;DHT22;39574;50.534;8.500;2022-08-19T00:13:36;22.1;99.9
53675;DHT22;39574;50.534;8.500;2022-08-19T00:18:38;22.1;99.9
53675;DHT22;39574;50.534;8.500;2022-08-19T00:23:42;22.0;99.9
53675;DHT22;39574;50.534;8.500;2022-08-19T00:28:42;21.9;99.9
53675;DHT22;39574;50.534;8.500;2022-08-19T00:33:59;21.9;99.9
53675;DHT22;39574;50.534;8.500;2022-08-19T00:43:08;22.0;99.9
53675;DHT22;39574;50.534;8.500;2022-08-19T00:48:17;21.9;99.9
53675;DHT22;39574;50.534;8.500;2022-08-19T00:53:24;21.9;99.9
53675;DHT22;39574;50.534;8.500;2022-08-19T00:58:35;21.8;99.9
53675;DHT22;39574;50.534;8.500;2022-08-19T01:03:38;21.6;99.9
53675;DHT22;39574;50.534;8.500;2022-08-19T01:13:05;21.6;99.9
53675;DHT22;39574;50.534;8.500;2022-08-19T01:18:17;21.5;99.9
53675;DHT22;39574;50.534;8.500;2022-08-19T01:23:17;21.6;99.9
53675;DHT22;39574;50.534;8.500;2022-08-19T01:28:32;21.6;99.9
53675;DHT22;39574;50.534;8.500;2022-08-19T01:37:54;21.7;99.9
53675;DHT22;39574;50.534;8.500;2022-08-19T01:43:01;21.7;99.9
53675;DHT22;39574;50.534;8.500;2022-08-19T01:48:03;21.5;99.9
53675;DHT22;39574;50.534;8.500;2022-08-19T01:53:07;21.5;99.9
53675;DHT22;39574;50.534;8.500;2022-08-19T01:58:14;21.5;99.9
53675;DHT22;39574;50.534;8.500;2022-08-19T02:03:18;21.6;99.9
53675;DHT22;39574;50.534;8.500;2022-08-19T02:08:30;21.6;99.9
53675;DHT22;39574;50.534;8.500;2022-08-19T02:18:00;21.5;99.9
53675;DHT22;39574;50.534;8.500;2022-08-19T02:23:11;21.5;99.9
53675;DHT22;39574;50.534;8.500;2022-08-19T02:28:16;21.4;99.9
53675;DHT22;39574;50.534;8.500;2022-08-19T02:33:26;21.3;99.9
53675;DHT22;39574;50.534;8.500;2022-08-19T02:43:09;21.3;99.9
53675;DHT22;39574;50.534;8.500;2022-08-19T02:48:12;21.3;99.9
53675;DHT22;39574;50.534;8.500;2022-08-19T02:53:12;21.2;99.9
53675;DHT22;39574;50.534;8.500;2022-08-19T02:58:14;21.1;99.9
53675;DHT22;39574;50.534;8.500;2022-08-19T03:03:25;21.1;99.9
53675;DHT22;39574;50.534;8.500;2022-08-19T03:08:26;21.0;99.9
53675;DHT22;39574;50.534;8.500;2022-08-19T03:17:36;20.8;99.9
53675;DHT22;39574;50.534;8.500;2022-08-19T03:22:54;20.8;99.9
53675;DHT22;39574;50.534;8.500;2022-08-19T03:28:07;20.8;99.9
53675;DHT22;39574;50.534;8.500;2022-08-19T03:33:19;20.6;99.9
53675;DHT22;39574;50.534;8.500;2022-08-19T03:38:25;20.6;99.9
53675;DHT22;39574;50.534;8.500;2022-08-19T03:47:52;20.5;99.9
53675;DHT22;39574;50.534;8.500;2022-08-19T03:52:52;20.5;99.9
53675;DHT22;39574;50.534;8.500;2022-08-19T03:58:05;20.6;99.9
53675;DHT22;39574;50.534;8.500;2022-08-19T04:03:18;20.8;99.9
53675;DHT22;39574;50.534;8.500;2022-08-19T04:13:01;20.9;99.9
53675;DHT22;39574;50.534;8.500;2022-08-19T04:18:05;20.9;99.9
53675;DHT22;39574;50.534;8.500;2022-08-19T04:23:20;20.8;99.9
53675;DHT22;39574;50.534;8.500;2022-08-19T04:32:47;20.5;99.9
53675;DHT22;39574;50.534;8.500;2022-08-19T04:37:48;20.3;99.9
53675;DHT22;39574;50.534;8.500;2022-08-19T04:42:58;20.2;99.9
53675;DHT22;39574;50.534;8.500;2022-08-19T04:47:59;20.1;99.9
53675;DHT22;39574;50.534;8.500;2022-08-19T04:53:12;20.1;99.9
53675;DHT22;39574;50.534;8.500;2022-08-19T05:02:36;20.3;99.9
53675;DHT22;39574;50.534;8.500;2022-08-19T05:07:40;20.4;99.9
53675;DHT22;39574;50.534;8.500;2022-08-19T05:12:43;20.5;99.9
53675;DHT22;39574;50.534;8.500;2022-08-19T05:17:57;20.6;99.9
53675;DHT22;39574;50.534;8.500;2022-08-19T05:22:58;20.6;99.9
53675;DHT22;39574;50.534;8.500;2022-08-19T05:28:08;20.6;99.9
53675;DHT22;39574;50.534;8.500;2022-08-19T05:33:14;20.7;99.9
53675;DHT22;39574;50.534;8.500;2022-08-19T05:42:32;20.9;99.9
53675;DHT22;39574;50.534;8.500;2022-08-19T05:47:51;20.9;99.9
53675;DHT22;39574;50.534;8.500;2022-08-19T05:52:55;21.1;99.9
53675;DHT22;39574;50.534;8.500;2022-08-19T05:57:56;21.2;99.9
53675;DHT22;39574;50.534;8.500;2022-08-19T06:03:08;21.4;99.9
53675;DHT22;39574;50.534;8.500;2022-08-19T06:12:37;21.6;99.9
53675;DHT22;39574;50.534;8.500;2022-08-19T06:17:40;21.7;99.9
53675;DHT22;39574;50.534;8.500;2022-08-19T06:22:47;21.8;99.9
53675;DHT22;39574;50.534;8.500;2022-08-19T06:27:51;21.9;99.9
53675;DHT22;39574;50.534;8.500;2022-08-19T06:33:06;21.9;99.9
53675;DHT22;39574;50.534;8.500;2022-08-19T06:42:46;22.0;99.9
53675;DHT22;39574;50.534;8.500;2022-08-19T06:47:51;22.2;99.9
53675;DHT22;39574;50.534;8.500;2022-08-19T06:53:01;22.3;99.9
53675;DHT22;39574;50.534;8.500;2022-08-19T06:58:04;22.4;99.9
53675;DHT22;39574;50.534;8.500;2022-08-19T07:07:33;22.6;99.9
53675;DHT22;39574;50.534;8.500;2022-08-19T07:12:47;22.7;99.9
53675;DHT22;39574;50.534;8.500;2022-08-19T07:17:49;22.8;99.9
53675;DHT22;39574;50.534;8.500;2022-08-19T07:22:59;23.0;99.9
53675;DHT22;39574;50.534;8.500;2022-08-19T07:32:43;23.1;99.9
53675;DHT22;39574;50.534;8.500;2022-08-19T07:37:57;23.3;99.9
53675;DHT22;39574;50.534;8.500;2022-08-19T07:43:01;23.5;99.9
53675;DHT22;39574;50.534;8.500;2022-08-19T07:48:03;23.7;99.9
53675;DHT22;39574;50.534;8.500;2022-08-19T07:57:29;23.6;99.9
53675;DHT22;39574;50.534;8.500;2022-08-19T08:02:42;23.6;99.9
53675;DHT22;39574;50.534;8.500;2022-08-19T08:07:44;23.7;99.9
53675;DHT22;39574;50.534;8.500;2022-08-19T08:12:59;24.0;99.9
53675;DHT22;39574;50.534;8.500;2022-08-19T08:22:42;24.1;99.9
53675;DHT22;39574;50.534;8.500;2022-08-19T08:27:44;24.2;99.9
53675;DHT22;39574;50.534;8.500;2022-08-19T08:32:56;24.1;99.9
53675;DHT22;39574;50.534;8.500;2022-08-19T08:37:58;24.2;99.9
53675;DHT22;39574;50.534;8.500;2022-08-19T08:47:24;24.3;99.9
53675;DHT22;39574;50.534;8.500;2022-08-19T08:52:26;24.7;99.9
53675;DHT22;39574;50.534;8.500;2022-08-19T08:57:26;25.1;99.9
53675;DHT22;39574;50.534;8.500;2022-08-19T09:02:40;25.4;99.9
53675;DHT22;39574;50.534;8.500;2022-08-19T09:07:56;25.6;99.9
53675;DHT22;39574;50.534;8.500;2022-08-19T09:12:58;25.5;99.9
53675;DHT22;39574;50.534;8.500;2022-08-19T09:22:24;25.4;99.9
53675;DHT22;39574;50.534;8.500;2022-08-19T09:27:27;25.4;99.9
53675;DHT22;39574;50.534;8.500;2022-08-19T09:32:36;25.6;99.9
53675;DHT22;39574;50.534;8.500;2022-08-19T09:37:51;25.8;99.9
53675;DHT22;39574;50.534;8.500;2022-08-19T09:42:54;25.9;99.9
53675;DHT22;39574;50.534;8.500;2022-08-19T09:47:55;26.0;99.9
53675;DHT22;39574;50.534;8.500;2022-08-19T09:52:55;26.2;99.9
53675;DHT22;39574;50.534;8.500;2022-08-19T10:02:22;26.7;99.9
53675;DHT22;39574;50.534;8.500;2022-08-19T10:07:31;26.8;99.9
53675;DHT22;39574;50.534;8.500;2022-08-19T10:12:32;27.2;99.9
53675;DHT22;39574;50.534;8.500;2022-08-19T10:17:39;27.4;99.9
53675;DHT22;39574;50.534;8.500;2022-08-19T10:22:50;27.6;99.9
53675;DHT22;39574;50.534;8.500;2022-08-19T10:32:03;27.8;99.9
53675;DHT22;39574;50.534;8.500;2022-08-19T10:37:21;27.8;99.9
53675;DHT22;39574;50.534;8.500;2022-08-19T10:42:23;28.1;99.9
53675;DHT22;39574;50.534;8.500;2022-08-19T10:47:32;28.4;99.9
53675;DHT22;39574;50.534;8.500;2022-08-19T10:57:54;28.3;99.9
53675;DHT22;39574;50.534;8.500;2022-08-19T11:07:20;28.2;99.9
53675;DHT22;39574;50.534;8.500;2022-08-19T11:12:31;28.1;99.9
53675;DHT22;39574;50.534;8.500;2022-08-19T11:17:46;28.4;99.9
53675;DHT22;39574;50.534;8.500;2022-08-19T11:22:51;28.9;99.9
53675;DHT22;39574;50.534;8.500;2022-08-19T11:32:19;28.4;99.9
53675;DHT22;39574;50.534;8.500;2022-08-19T11:37:19;28.2;99.9
53675;DHT22;39574;50.534;8.500;2022-08-19T11:42:19;28.6;99.9
53675;DHT22;39574;50.534;8.500;2022-08-19T11:47:19;29.0;99.9
53675;DHT22;39574;50.534;8.500;2022-08-19T11:52:30;29.3;99.9
53675;DHT22;39574;50.534;8.500;2022-08-19T11:57:30;29.7;99.9
53675;DHT22;39574;50.534;8.500;2022-08-19T12:02:30;29.4;99.9
53675;DHT22;39574;50.534;8.500;2022-08-19T12:07:31;29.3;99.9
53675;DHT22;39574;50.534;8.500;2022-08-19T12:12:32;29.4;99.9
53675;DHT22;39574;50.534;8.500;2022-08-19T12:17:47;29.9;99.5
53675;DHT22;39574;50.534;8.500;2022-08-19T12:22:48;30.7;98.0
53675;DHT22;39574;50.534;8.500;2022-08-19T12:27:51;31.2;96.5
53675;DHT22;39574;50.534;8.500;2022-08-19T12:32:51;31.2;95.3
53675;DHT22;39574;50.534;8.500;2022-08-19T12:42:01;30.2;94.8
53675;DHT22;39574;50.534;8.500;2022-08-19T12:47:18;29.7;95.2
53675;DHT22;39574;50.534;8.500;2022-08-19T12:52:32;29.3;94.6
53675;DHT22;39574;50.534;8.500;2022-08-19T12:57:47;29.2;94.4
53675;DHT22;39574;50.534;8.500;2022-08-19T13:02:51;29.4;94.2
53675;DHT22;39574;50.534;8.500;2022-08-19T13:12:27;30.1;93.4
53675;DHT22;39574;50.534;8.500;2022-08-19T13:17:30;30.4;92.0
53675;DHT22;39574;50.534;8.500;2022-08-19T13:22:44;30.5;91.2
53675;DHT22;39574;50.534;8.500;2022-08-19T13:27:45;29.9;91.7
53675;DHT22;39574;50.534;8.500;2022-08-19T13:32:48;29.8;92.2
53675;DHT22;39574;50.534;8.500;2022-08-19T13:37:47;30.1;92.8
53675;DHT22;39574;50.534;8.500;2022-08-19T13:42:51;30.4;93.2
53675;DHT22;39574;50.534;8.500;2022-08-19T13:52:27;29.6;94.1
53675;DHT22;39574;50.534;8.500;2022-08-19T13:57:34;28.8;94.7
53675;DHT22;39574;50.534;8.500;2022-08-19T14:02:47;28.1;95.1
53675;DHT22;39574;50.534;8.500;2022-08-19T14:07:49;27.8;95.8
53675;DHT22;39574;50.534;8.500;2022-08-19T14:12:52;28.1;95.6
53675;DHT22;39574;50.534;8.500;2022-08-19T14:22:29;28.8;95.2
53675;DHT22;39574;50.534;8.500;2022-08-19T14:27:32;29.6;94.2
53675;DHT22;39574;50.534;8.500;2022-08-19T14:32:46;29.8;93.8
53675;DHT22;39574;50.534;8.500;2022-08-19T14:42:09;29.5;94.0
53675;DHT22;39574;50.534;8.500;2022-08-19T14:47:12;29.0;94.3
53675;DHT22;39574;50.534;8.500;2022-08-19T14:52:17;28.7;94.7
53675;DHT22;39574;50.534;8.500;2022-08-19T14:57:19;28.6;94.6
53675;DHT22;39574;50.534;8.500;2022-08-19T15:02:33;28.9;93.8
53675;DHT22;39574;50.534;8.500;2022-08-19T15:07:44;29.0;93.2
53675;DHT22;39574;50.534;8.500;2022-08-19T15:12:49;29.0;92.6
53675;DHT22;39574;50.534;8.500;2022-08-19T15:22:16;29.0;92.2
53675;DHT22;39574;50.534;8.500;2022-08-19T15:27:17;29.4;91.8
53675;DHT22;39574;50.534;8.500;2022-08-19T15:32:17;29.8;90.7
53675;DHT22;39574;50.534;8.500;2022-08-19T15:37:19;30.1;90.0
53675;DHT22;39574;50.534;8.500;2022-08-19T15:42:28;30.4;88.9
53675;DHT22;39574;50.534;8.500;2022-08-19T15:47:30;30.4;88.1
53675;DHT22;39574;50.534;8.500;2022-08-19T15:52:44;30.5;87.7
53675;DHT22;39574;50.534;8.500;2022-08-19T15:57:47;30.6;86.9
53675;DHT22;39574;50.534;8.500;2022-08-19T16:06:58;30.7;86.8
53675;DHT22;39574;50.534;8.500;2022-08-19T16:12:16;30.7;87.3
53675;DHT22;39574;50.534;8.500;2022-08-19T16:17:16;30.8;87.9
53675;DHT22;39574;50.534;8.500;2022-08-19T16:22:17;30.7;88.4
53675;DHT22;39574;50.534;8.500;2022-08-19T16:27:29;30.7;88.2
53675;DHT22;39574;50.534;8.500;2022-08-19T16:32:42;30.6;87.8
53675;DHT22;39574;50.534;8.500;2022-08-19T16:37:47;30.4;87.6
53675;DHT22;39574;50.534;8.500;2022-08-19T16:47:15;29.8;88.2
53675;DHT22;39574;50.534;8.500;2022-08-19T16:52:29;29.1;89.2
53675;DHT22;39574;50.534;8.500;2022-08-19T16:57:32;28.5;90.0
53675;DHT22;39574;50.534;8.500;2022-08-19T17:02:45;28.1;90.5
53675;DHT22;39574;50.534;8.500;2022-08-19T17:12:16;27.9;91.1
53675;DHT22;39574;50.534;8.500;2022-08-19T17:17:18;27.9;91.5
53675;DHT22;39574;50.534;8.500;2022-08-19T17:22:28;28.0;91.7
53675;DHT22;39574;50.534;8.500;2022-08-19T17:27:31;28.3;91.9
53675;DHT22;39574;50.534;8.500;2022-08-19T17:32:44;28.5;92.0
53675;DHT22;39574;50.534;8.500;2022-08-19T17:37:46;28.4;92.1
53675;DHT22;39574;50.534;8.500;2022-08-19T17:46:56;28.3;92.3
53675;DHT22;39574;50.534;8.500;2022-08-19T17:52:15;28.2;92.6
53675;DHT22;39574;50.534;8.500;2022-08-19T17:57:17;28.1;92.7
53675;DHT22;39574;50.534;8.500;2022-08-19T18:02:27;28.0;92.9
53675;DHT22;39574;50.534;8.500;2022-08-19T18:07:29;27.9;93.0
53675;DHT22;39574;50.534;8.500;2022-08-19T18:12:31;27.5;93.3
53675;DHT22;39574;50.534;8.500;2022-08-19T18:17:46;27.1;93.9
53675;DHT22;39574;50.534;8.500;2022-08-19T18:22:47;26.6;94.7
53675;DHT22;39574;50.534;8.500;2022-08-19T18:32:26;26.1;95.8
53675;DHT22;39574;50.534;8.500;2022-08-19T18:37:26;25.9;96.6
53675;DHT22;39574;50.534;8.500;2022-08-19T18:42:27;25.7;97.4
53675;DHT22;39574;50.534;8.500;2022-08-19T18:47:41;25.5;97.9
53675;DHT22;39574;50.534;8.500;2022-08-19T18:57:10;25.3;98.8
53675;DHT22;39574;50.534;8.500;2022-08-19T19:02:12;25.2;99.4
53675;DHT22;39574;50.534;8.500;2022-08-19T19:07:12;25.1;99.7
53675;DHT22;39574;50.534;8.500;2022-08-19T19:12:23;25.0;99.9
53675;DHT22;39574;50.534;8.500;2022-08-19T19:17:29;25.0;99.9
53675;DHT22;39574;50.534;8.500;2022-08-19T19:22:40;24.9;99.9
53675;DHT22;39574;50.534;8.500;2022-08-19T19:32:15;24.7;99.9
53675;DHT22;39574;50.534;8.500;2022-08-19T19:37:22;24.6;99.9
53675;DHT22;39574;50.534;8.500;2022-08-19T19:42:25;24.6;99.9
53675;DHT22;39574;50.534;8.500;2022-08-19T19:47:26;24.6;99.9
53675;DHT22;39574;50.534;8.500;2022-08-19T19:52:27;24.6;99.9
53675;DHT22;39574;50.534;8.500;2022-08-19T19:57:35;24.6;99.9
53675;DHT22;39574;50.534;8.500;2022-08-19T20:02:37;24.6;99.9
53675;DHT22;39574;50.534;8.500;2022-08-19T20:07:39;24.6;99.9
53675;DHT22;39574;50.534;8.500;2022-08-19T20:17:08;24.5;99.9
53675;DHT22;39574;50.534;8.500;2022-08-19T20:22:10;24.5;99.9
53675;DHT22;39574;50.534;8.500;2022-08-19T20:27:23;24.4;99.9
53675;DHT22;39574;50.534;8.500;2022-08-19T20:32:34;24.3;99.9
53675;DHT22;39574;50.534;8.500;2022-08-19T20:37:37;24.3;99.9
53675;DHT22;39574;50.534;8.500;2022-08-19T20:42:38;24.2;99.9
53675;DHT22;39574;50.534;8.500;2022-08-19T20:52:17;24.1;99.9
53675;DHT22;39574;50.534;8.500;2022-08-19T20:57:19;24.1;99.9
53675;DHT22;39574;50.534;8.500;2022-08-19T21:02:33;24.0;99.9
53675;DHT22;39574;50.534;8.500;2022-08-19T21:11:56;23.9;99.9
53675;DHT22;39574;50.534;8.500;2022-08-19T21:17:07;23.8;99.9
53675;DHT22;39574;50.534;8.500;2022-08-19T21:22:15;23.7;99.9
53675;DHT22;39574;50.534;8.500;2022-08-19T21:27:19;23.6;99.9
53675;DHT22;39574;50.534;8.500;2022-08-19T21:32:31;23.4;99.9
53675;DHT22;39574;50.534;8.500;2022-08-19T21:37:33;23.3;99.9
53675;DHT22;39574;50.534;8.500;2022-08-19T21:47:03;23.3;99.9
53675;DHT22;39574;50.534;8.500;2022-08-19T21:52:03;23.2;99.9
53675;DHT22;39574;50.534;8.500;2022-08-19T21:57:14;22.9;99.9
53675;DHT22;39574;50.534;8.500;2022-08-19T22:02:27;22.7;99.9
53675;DHT22;39574;50.534;8.500;2022-08-19T22:12:18;22.4;99.9
53675;DHT22;39574;50.534;8.500;2022-08-19T22:17:17;22.2;99.9
53675;DHT22;39574;50.534;8.500;2022-08-19T22:22:28;22.1;99.9
53675;DHT22;39574;50.534;8.500;2022-08-19T22:32:10;21.9;99.9
53675;DHT22;39574;50.534;8.500;2022-08-19T22:37:25;21.7;99.9
53675;DHT22;39574;50.534;8.500;2022-08-19T22:42:28;21.7;99.9
53675;DHT22;39574;50.534;8.500;2022-08-19T22:52:07;21.9;99.9
53675;DHT22;39574;50.534;8.500;2022-08-19T22:57:11;21.9;99.9
53675;DHT22;39574;50.534;8.500;2022-08-19T23:02:25;21.9;99.9
53675;DHT22;39574;50.534;8.500;2022-08-19T23:07:25;21.9;99.9
53675;DHT22;39574;50.534;8.500;2022-08-19T23:17:06;21.7;99.9
53675;DHT22;39574;50.534;8.500;2022-08-19T23:22:10;21.4;99.9
53675;DHT22;39574;50.534;8.500;2022-08-19T23:27:22;21.2;99.9
53675;DHT22;39574;50.534;8.500;2022-08-19T23:32:23;21.0;99.9
53675;DHT22;39574;50.534;8.500;2022-08-19T23:41:52;20.8;99.9
53675;DHT22;39574;50.534;8.500;2022-08-19T23:47:03;20.6;99.9
53675;DHT22;39574;50.534;8.500;2022-08-19T23:52:07;20.4;99.9
53675;DHT22;39574;50.534;8.500;2022-08-19T23:57:08;20.3;99.9
